Time;durP1;ratioP1;P1;durP2;ratioP2;P2;SDS_P1;SDS_P2;PMS_P1;PMS_P2;Temp;Humidity;BMP_temperature;BMP_pressure;BME280_temperature;BME280_humidity;BME280_pressure;Samples;Min_cycle;Max_cycle;Signal;HPM_P1;HPM_P2
2022/04/05 00:00:50;;;;;;;0.73;0.20;;;;;;;;;;5279566;28;20275;-68
2022/04/05 00:03:21;;;;;;;0.43;0.15;;;;;;;;;;5281286;28;20702;-69
2022/04/05 00:05:52;;;;;;;1.27;0.25;;;;;;;;;;5280590;28;20025;-70
2022/04/05 00:08:23;;;;;;;0.30;0.10;;;;;;;;;;5280211;28;20314;-70
2022/04/05 00:10:54;;;;;;;0.50;0.20;;;;;;;;;;5280432;28;20028;-70
2022/04/05 00:13:25;;;;;;;0.30;0.10;;;;;;;;;;5283204;28;20041;-70
2022/04/05 00:15:57;;;;;;;0.47;0.10;;;;;;;;;;5283147;28;20349;-69
2022/04/05 00:18:28;;;;;;;0.28;0.10;;;;;;;;;;5284879;28;20614;-70
2022/04/05 00:20:59;;;;;;;0.20;0.00;;;;;;;;;;5284193;28;20024;-68
2022/04/05 00:23:30;;;;;;;0.30;0.10;;;;;;;;;;5283510;28;20282;-68
2022/04/05 00:26:02;;;;;;;0.43;0.10;;;;;;;;;;5284629;28;20100;-72
2022/04/05 00:28:33;;;;;;;0.30;0.03;;;;;;;;;;5283748;28;20085;-71
2022/04/05 00:31:05;;;;;;;0.40;0.10;;;;;;;;;;5284406;28;20078;-71
2022/04/05 00:33:36;;;;;;;0.20;0.10;;;;;;;;;;5284237;28;20287;-71
2022/04/05 00:36:07;;;;;;;0.30;0.10;;;;;;;;;;5283407;28;20025;-71
2022/04/05 00:38:39;;;;;;;0.20;0.00;;;;;;;;;;5284430;28;20302;-70
2022/04/05 00:41:10;;;;;;;0.40;0.10;;;;;;;;;;5284270;28;20275;-71
2022/04/05 00:43:41;;;;;;;0.43;0.10;;;;;;;;;;5283427;28;20462;-71
2022/04/05 00:46:12;;;;;;;0.22;0.05;;;;;;;;;;5284095;28;20757;-71
2022/04/05 00:48:48;;;;;;;0.52;0.03;;;;;;;;;;5284064;28;20247;-71
2022/04/05 00:51:20;;;;;;;0.17;0.05;;;;;;;;;;5283445;28;20056;-71
2022/04/05 00:53:52;;;;;;;0.15;0.10;;;;;;;;;;5283745;28;20483;-70
2022/04/05 00:56:24;;;;;;;0.32;0.10;;;;;;;;;;5283363;28;20025;-70
2022/04/05 00:58:58;;;;;;;0.10;0.00;;;;;;;;;;5283525;28;20016;-70
2022/04/05 01:01:30;;;;;;;0.10;0.08;;;;;;;;;;5284071;28;20025;-69
2022/04/05 01:04:02;;;;;;;0.32;0.08;;;;;;;;;;5283170;28;20345;-71
2022/04/05 01:06:43;;;;;;;0.13;0.00;;;;;;;;;;5283672;28;20103;-69
2022/04/05 01:09:14;;;;;;;0.30;0.10;;;;;;;;;;5283578;28;20020;-69
2022/04/05 01:11:45;;;;;;;0.20;0.10;;;;;;;;;;5282250;28;20028;-68
2022/04/05 01:14:16;;;;;;;0.20;0.00;;;;;;;;;;5283599;28;20403;-69
2022/04/05 01:16:48;;;;;;;0.20;0.08;;;;;;;;;;5283139;28;20020;-70
2022/04/05 01:19:19;;;;;;;0.10;0.00;;;;;;;;;;5283093;28;20785;-70
2022/04/05 01:21:50;;;;;;;0.10;0.00;;;;;;;;;;5282933;28;20383;-72
2022/04/05 01:24:21;;;;;;;0.10;0.00;;;;;;;;;;5283197;28;20020;-70
2022/04/05 01:26:53;;;;;;;0.40;0.10;;;;;;;;;;5282189;28;20301;-70
2022/04/05 01:29:26;;;;;;;0.50;0.10;;;;;;;;;;5283671;28;20023;-70
2022/04/05 01:31:59;;;;;;;0.25;0.08;;;;;;;;;;5282233;28;20015;-70
2022/04/05 01:34:30;;;;;;;0.22;0.10;;;;;;;;;;5282971;28;20116;-70
2022/04/05 01:37:03;;;;;;;0.30;0.10;;;;;;;;;;5283278;28;20503;-71
2022/04/05 01:39:35;;;;;;;0.38;0.10;;;;;;;;;;5282228;28;20029;-71
2022/04/05 01:42:07;;;;;;;0.22;0.10;;;;;;;;;;5283109;28;20371;-70
2022/04/05 01:44:39;;;;;;;0.13;0.00;;;;;;;;;;5282973;28;20077;-70
2022/04/05 01:47:12;;;;;;;0.20;0.00;;;;;;;;;;5281901;28;20021;-70
2022/04/05 01:49:45;;;;;;;0.13;0.00;;;;;;;;;;5283271;28;20162;-71
2022/04/05 01:52:17;;;;;;;1.08;0.10;;;;;;;;;;5283878;28;20017;-70
2022/04/05 01:54:48;;;;;;;0.20;0.00;;;;;;;;;;5282446;28;20043;-71
2022/04/05 01:57:19;;;;;;;1.65;0.08;;;;;;;;;;5283330;28;20357;-70
2022/04/05 01:59:50;;;;;;;0.10;0.00;;;;;;;;;;5281761;28;20756;-69
2022/04/05 02:02:21;;;;;;;0.17;0.10;;;;;;;;;;5282737;28;20383;-70
2022/04/05 02:04:53;;;;;;;0.20;0.00;;;;;;;;;;5282684;28;20259;-70
2022/04/05 02:07:24;;;;;;;0.30;0.10;;;;;;;;;;5281661;28;20029;-70
2022/04/05 02:09:55;;;;;;;0.73;0.00;;;;;;;;;;5282342;28;20621;-70
2022/04/05 02:12:26;;;;;;;0.25;0.00;;;;;;;;;;5282419;28;20071;-70
2022/04/05 02:14:57;;;;;;;0.15;0.00;;;;;;;;;;5281503;28;20287;-68
2022/04/05 02:17:28;;;;;;;0.20;0.10;;;;;;;;;;5282378;28;20027;-69
2022/04/05 02:20:00;;;;;;;0.10;0.00;;;;;;;;;;5282247;28;20436;-70
2022/04/05 02:22:31;;;;;;;0.00;0.00;;;;;;;;;;5281054;28;20273;-71
2022/04/05 02:25:03;;;;;;;0.10;0.00;;;;;;;;;;5282523;28;20032;-71
2022/04/05 02:27:34;;;;;;;0.22;0.00;;;;;;;;;;5281943;28;20044;-71
2022/04/05 02:30:06;;;;;;;0.30;0.00;;;;;;;;;;5281536;28;20043;-70
2022/04/05 02:32:37;;;;;;;0.20;0.00;;;;;;;;;;5281739;28;20043;-70
2022/04/05 02:35:10;;;;;;;0.10;0.00;;;;;;;;;;5280809;28;20469;-70
2022/04/05 02:37:42;;;;;;;0.35;0.10;;;;;;;;;;5281743;28;20016;-70
2022/04/05 02:40:13;;;;;;;0.10;0.00;;;;;;;;;;5282311;28;20032;-70
2022/04/05 02:42:44;;;;;;;0.15;0.00;;;;;;;;;;5280631;28;20029;-70
2022/04/05 02:45:15;;;;;;;0.05;0.00;;;;;;;;;;5281852;28;20020;-70
2022/04/05 02:47:46;;;;;;;0.20;0.00;;;;;;;;;;5281498;28;20099;-69
2022/04/05 02:50:18;;;;;;;0.06;0.00;;;;;;;;;;5281305;28;20025;-69
2022/04/05 02:52:49;;;;;;;0.13;0.00;;;;;;;;;;5281413;28;20100;-68
2022/04/05 02:55:21;;;;;;;0.17;0.00;;;;;;;;;;5281880;28;20035;-69
2022/04/05 02:57:52;;;;;;;0.10;0.00;;;;;;;;;;5280716;28;20021;-69
2022/04/05 03:00:23;;;;;;;0.13;0.00;;;;;;;;;;5281706;28;20074;-69
2022/04/05 03:02:54;;;;;;;0.25;0.10;;;;;;;;;;5281352;28;20021;-69
2022/04/05 03:05:25;;;;;;;0.50;0.03;;;;;;;;;;5281021;28;20020;-69
2022/04/05 03:07:57;;;;;;;0.10;0.10;;;;;;;;;;5281427;28;20539;-69
2022/04/05 03:10:29;;;;;;;0.10;0.00;;;;;;;;;;5280634;28;20266;-68
2022/04/05 03:13:01;;;;;;;0.08;0.00;;;;;;;;;;5281520;28;20105;-70
2022/04/05 03:15:32;;;;;;;0.28;0.00;;;;;;;;;;5281084;28;20028;-68
2022/04/05 03:18:03;;;;;;;0.30;0.00;;;;;;;;;;5280899;28;20034;-70
2022/04/05 03:20:34;;;;;;;0.35;0.00;;;;;;;;;;5280926;28;20029;-69
2022/04/05 03:23:07;;;;;;;0.15;0.00;;;;;;;;;;5281726;28;20026;-70
2022/04/05 03:25:38;;;;;;;0.20;0.00;;;;;;;;;;5280293;28;20274;-70
2022/04/05 03:28:09;;;;;;;0.34;0.00;;;;;;;;;;5281579;28;20036;-69
2022/04/05 03:30:41;;;;;;;0.30;0.00;;;;;;;;;;5280813;28;20108;-69
2022/04/05 03:33:13;;;;;;;0.10;0.00;;;;;;;;;;5280531;28;20463;-69
2022/04/05 03:35:44;;;;;;;0.20;0.10;;;;;;;;;;5280938;28;20047;-69
2022/04/05 03:38:15;;;;;;;0.20;0.10;;;;;;;;;;5280634;28;20063;-69
2022/04/05 03:40:46;;;;;;;0.20;0.00;;;;;;;;;;5280595;28;20051;-69
2022/04/05 03:43:17;;;;;;;0.20;0.08;;;;;;;;;;5281473;28;20376;-69
2022/04/05 03:45:49;;;;;;;0.20;0.05;;;;;;;;;;5279860;28;20433;-69
2022/04/05 03:48:20;;;;;;;0.68;0.10;;;;;;;;;;5285771;28;20269;-70
2022/04/05 03:50:52;;;;;;;0.45;0.00;;;;;;;;;;5285159;28;20024;-70
2022/04/05 03:53:23;;;;;;;0.10;0.00;;;;;;;;;;5284403;28;20270;-70
2022/04/05 03:55:54;;;;;;;0.22;0.10;;;;;;;;;;5285026;28;20073;-70
2022/04/05 03:58:26;;;;;;;0.20;0.10;;;;;;;;;;5284886;28;20032;-69
2022/04/05 04:00:57;;;;;;;0.20;0.00;;;;;;;;;;5284065;28;20269;-70
2022/04/05 04:03:28;;;;;;;0.45;0.10;;;;;;;;;;5284801;28;20452;-69
2022/04/05 04:05:59;;;;;;;0.73;0.00;;;;;;;;;;5284892;28;20754;-71
2022/04/05 04:08:31;;;;;;;0.43;0.10;;;;;;;;;;5283729;28;20028;-70
2022/04/05 04:11:02;;;;;;;0.30;0.10;;;;;;;;;;5285046;28;20031;-70
2022/04/05 04:13:33;;;;;;;0.10;0.00;;;;;;;;;;5283429;28;20488;-69
2022/04/05 04:16:04;;;;;;;0.57;0.10;;;;;;;;;;5285024;28;20028;-70
2022/04/05 04:18:35;;;;;;;0.15;0.03;;;;;;;;;;5284394;28;20100;-70
2022/04/05 04:21:06;;;;;;;0.20;0.00;;;;;;;;;;5284124;28;20046;-70
2022/04/05 04:23:38;;;;;;;0.10;0.05;;;;;;;;;;5284423;28;20024;-70
2022/04/05 04:26:09;;;;;;;1.27;0.00;;;;;;;;;;5284897;28;20270;-70
2022/04/05 04:28:40;;;;;;;0.10;0.00;;;;;;;;;;5283460;28;20024;-70
2022/04/05 04:31:11;;;;;;;0.20;0.00;;;;;;;;;;5284751;28;20263;-70
2022/04/05 04:33:42;;;;;;;0.17;0.00;;;;;;;;;;5283875;28;20012;-70
2022/04/05 04:36:14;;;;;;;0.10;0.00;;;;;;;;;;5284282;28;20028;-70
2022/04/05 04:38:45;;;;;;;0.50;0.00;;;;;;;;;;5284080;28;20021;-71
2022/04/05 04:41:16;;;;;;;0.38;0.10;;;;;;;;;;5284676;28;20056;-70
2022/04/05 04:43:48;;;;;;;0.40;0.00;;;;;;;;;;5282974;28;20031;-70
2022/04/05 04:46:19;;;;;;;0.30;0.10;;;;;;;;;;5284309;28;20463;-69
2022/04/05 04:48:50;;;;;;;0.10;0.00;;;;;;;;;;5283010;28;20013;-71
2022/04/05 04:51:21;;;;;;;0.43;0.10;;;;;;;;;;5284331;28;20098;-70
2022/04/05 04:53:53;;;;;;;0.20;0.08;;;;;;;;;;5284713;28;20020;-70
2022/04/05 04:56:24;;;;;;;0.30;0.10;;;;;;;;;;5283632;28;20464;-70
2022/04/05 04:58:55;;;;;;;0.10;0.00;;;;;;;;;;5283795;28;20335;-70
2022/04/05 05:01:26;;;;;;;0.32;0.00;;;;;;;;;;5284145;28;20757;-70
2022/04/05 05:03:58;;;;;;;0.30;0.10;;;;;;;;;;5283329;28;20366;-69
2022/04/05 05:06:29;;;;;;;0.20;0.10;;;;;;;;;;5283423;28;20247;-70
2022/04/05 05:09:01;;;;;;;0.65;0.20;;;;;;;;;;5283885;28;20024;-70
2022/04/05 05:11:32;;;;;;;0.32;0.10;;;;;;;;;;5282592;28;20013;-70
2022/04/05 05:14:03;;;;;;;0.20;0.10;;;;;;;;;;5283013;28;20056;-69
2022/04/05 05:16:35;;;;;;;0.30;0.10;;;;;;;;;;5282582;28;20029;-70
2022/04/05 05:19:06;;;;;;;0.30;0.10;;;;;;;;;;5283403;28;20267;-70
2022/04/05 05:21:37;;;;;;;0.30;0.10;;;;;;;;;;5283013;28;20020;-70
2022/04/05 05:24:08;;;;;;;0.30;0.10;;;;;;;;;;5282961;28;20107;-71
2022/04/05 05:26:39;;;;;;;0.12;0.00;;;;;;;;;;5282915;28;20032;-70
2022/04/05 05:29:12;;;;;;;0.13;0.00;;;;;;;;;;5283647;28;20099;-71
2022/04/05 05:31:43;;;;;;;0.20;0.00;;;;;;;;;;5282055;28;20614;-72
2022/04/05 05:34:21;;;;;;;0.00;0.00;;;;;;;;;;5283275;28;20036;-69
2022/04/05 05:36:52;;;;;;;0.50;0.20;;;;;;;;;;5283251;28;20764;-69
2022/04/05 05:39:23;;;;;;;0.40;0.10;;;;;;;;;;5282174;28;20020;-70
2022/04/05 05:41:54;;;;;;;0.38;0.10;;;;;;;;;;5283191;28;20389;-69
2022/04/05 05:44:26;;;;;;;0.75;0.10;;;;;;;;;;5282597;28;20024;-70
2022/04/05 05:46:57;;;;;;;0.45;0.10;;;;;;;;;;5282515;28;20028;-71
2022/04/05 05:49:28;;;;;;;0.40;0.10;;;;;;;;;;5282740;28;20024;-69
2022/04/05 05:51:59;;;;;;;0.30;0.00;;;;;;;;;;5282292;28;20063;-68
2022/04/05 05:54:30;;;;;;;0.40;0.10;;;;;;;;;;5282357;28;20044;-70
2022/04/05 05:57:02;;;;;;;0.10;0.00;;;;;;;;;;5282775;28;20078;-70
2022/04/05 05:59:33;;;;;;;0.40;0.10;;;;;;;;;;5281670;28;20020;-71
2022/04/05 06:02:04;;;;;;;0.35;0.10;;;;;;;;;;5282942;28;20084;-71
2022/04/05 06:04:35;;;;;;;0.20;0.00;;;;;;;;;;5282006;28;20025;-71
2022/04/05 06:07:06;;;;;;;0.20;0.10;;;;;;;;;;5281919;28;20267;-71
2022/04/05 06:09:37;;;;;;;0.15;0.00;;;;;;;;;;5281980;28;20623;-70
2022/04/05 06:12:09;;;;;;;0.20;0.00;;;;;;;;;;5282527;28;20316;-70
2022/04/05 06:14:40;;;;;;;0.17;0.00;;;;;;;;;;5281108;28;20574;-70
2022/04/05 06:17:11;;;;;;;0.30;0.10;;;;;;;;;;5282361;28;20028;-70
2022/04/05 06:19:43;;;;;;;0.10;0.00;;;;;;;;;;5281784;28;20776;-71
2022/04/05 06:22:14;;;;;;;0.40;0.10;;;;;;;;;;5281553;28;20798;-70
2022/04/05 06:24:46;;;;;;;0.20;0.00;;;;;;;;;;5281880;28;20050;-70
2022/04/05 06:27:17;;;;;;;0.30;0.10;;;;;;;;;;5281500;28;20020;-71
2022/04/05 06:29:48;;;;;;;0.20;0.00;;;;;;;;;;5281651;28;20028;-70
2022/04/05 06:32:19;;;;;;;0.13;0.00;;;;;;;;;;5281675;28;20262;-70
2022/04/05 06:34:51;;;;;;;0.30;0.10;;;;;;;;;;5281108;28;20029;-69
2022/04/05 06:37:23;;;;;;;0.30;0.10;;;;;;;;;;5281504;28;20349;-71
2022/04/05 06:39:54;;;;;;;0.50;0.10;;;;;;;;;;5282041;28;20262;-70
2022/04/05 06:42:25;;;;;;;0.32;0.13;;;;;;;;;;5280677;28;20017;-70
2022/04/05 06:44:57;;;;;;;0.55;0.00;;;;;;;;;;5277198;28;20028;-70
2022/04/05 06:47:28;;;;;;;0.43;0.00;;;;;;;;;;5280306;28;20016;-70
2022/04/05 06:49:59;;;;;;;0.20;0.00;;;;;;;;;;5280061;28;20052;-70
2022/04/05 06:52:30;;;;;;;0.20;0.00;;;;;;;;;;5280943;28;20024;-70
2022/04/05 06:55:01;;;;;;;0.35;0.05;;;;;;;;;;5281630;28;20305;-68
2022/04/05 06:57:32;;;;;;;1.10;0.00;;;;;;;;;;5279768;28;20016;-68
2022/04/05 07:00:08;;;;;;;0.57;0.10;;;;;;;;;;5281611;28;20024;-68
2022/04/05 07:02:39;;;;;;;1.45;0.08;;;;;;;;;;5279871;28;20021;-69
2022/04/05 07:05:10;;;;;;;0.45;0.10;;;;;;;;;;5281932;28;20051;-69
2022/04/05 07:07:42;;;;;;;0.32;0.10;;;;;;;;;;5280722;28;20054;-69
2022/04/05 07:10:15;;;;;;;1.05;0.20;;;;;;;;;;5281046;28;20024;-69
2022/04/05 07:12:47;;;;;;;0.20;0.00;;;;;;;;;;5280900;28;20045;-69
2022/04/05 07:15:18;;;;;;;0.25;0.10;;;;;;;;;;5281324;28;20028;-69
2022/04/05 07:17:49;;;;;;;0.50;0.10;;;;;;;;;;5280444;28;20017;-69
2022/04/05 07:20:20;;;;;;;0.60;0.10;;;;;;;;;;5281047;28;20095;-69
2022/04/05 07:22:51;;;;;;;0.15;0.00;;;;;;;;;;5280939;28;20020;-71
2022/04/05 07:25:23;;;;;;;0.47;0.00;;;;;;;;;;5280255;28;20494;-69
2022/04/05 07:27:55;;;;;;;0.40;0.10;;;;;;;;;;5281439;28;20338;-69
2022/04/05 07:30:26;;;;;;;0.17;0.10;;;;;;;;;;5279995;28;20031;-69
2022/04/05 07:32:57;;;;;;;1.27;0.10;;;;;;;;;;5281406;28;20058;-69
2022/04/05 07:35:28;;;;;;;1.45;0.10;;;;;;;;;;5280820;28;20033;-69
2022/04/05 07:37:59;;;;;;;0.20;0.10;;;;;;;;;;5280763;28;20024;-69
2022/04/05 07:40:47;;;;;;;0.20;0.00;;;;;;;;;;5280547;28;20024;-70
2022/04/05 07:43:20;;;;;;;0.10;0.00;;;;;;;;;;5280949;28;20550;-71
2022/04/05 07:45:51;;;;;;;0.20;0.00;;;;;;;;;;5279998;28;20029;-70
2022/04/05 07:48:25;;;;;;;0.10;0.05;;;;;;;;;;5280811;28;20418;-70
2022/04/05 07:50:56;;;;;;;0.43;0.00;;;;;;;;;;5281139;28;20029;-69
2022/04/05 07:53:27;;;;;;;0.30;0.10;;;;;;;;;;5280148;28;20447;-69
2022/04/05 07:55:58;;;;;;;0.10;0.00;;;;;;;;;;5280949;28;20168;-69
2022/04/05 07:58:30;;;;;;;0.60;0.10;;;;;;;;;;5279674;28;20021;-70
2022/04/05 08:01:01;;;;;;;0.20;0.00;;;;;;;;;;5281264;28;20433;-69
2022/04/05 08:03:34;;;;;;;0.45;0.10;;;;;;;;;;5280547;28;20091;-70
2022/04/05 08:06:05;;;;;;;0.10;0.00;;;;;;;;;;5280174;28;20085;-70
2022/04/05 08:08:36;;;;;;;0.20;0.00;;;;;;;;;;5280180;28;20029;-70
2022/04/05 08:11:07;;;;;;;0.85;0.10;;;;;;;;;;5281046;28;20110;-70
2022/04/05 08:13:38;;;;;;;0.20;0.00;;;;;;;;;;5279314;28;20363;-70
2022/04/05 08:16:10;;;;;;;0.22;0.10;;;;;;;;;;5280501;28;20285;-70
2022/04/05 08:18:41;;;;;;;0.22;0.10;;;;;;;;;;5280285;28;20356;-70
2022/04/05 08:21:12;;;;;;;0.30;0.10;;;;;;;;;;5280354;28;20032;-67
2022/04/05 08:23:43;;;;;;;0.30;0.10;;;;;;;;;;5280400;28;20027;-70
2022/04/05 08:26:15;;;;;;;0.20;0.00;;;;;;;;;;5279742;28;20036;-69
2022/04/05 08:28:46;;;;;;;0.28;0.00;;;;;;;;;;5279239;28;20097;-70
2022/04/05 08:31:18;;;;;;;0.17;0.05;;;;;;;;;;5280381;28;20021;-70
2022/04/05 08:33:49;;;;;;;0.20;0.00;;;;;;;;;;5280944;28;20020;-70
2022/04/05 08:36:20;;;;;;;0.30;0.08;;;;;;;;;;5283381;28;20089;-70
2022/04/05 08:38:51;;;;;;;0.20;0.00;;;;;;;;;;5282041;28;20467;-70
2022/04/05 08:41:24;;;;;;;0.50;0.10;;;;;;;;;;5282540;28;20282;-70
2022/04/05 08:43:55;;;;;;;0.17;0.00;;;;;;;;;;5284077;28;20100;-70
2022/04/05 08:46:26;;;;;;;0.15;0.10;;;;;;;;;;5283583;28;20107;-70
2022/04/05 08:48:58;;;;;;;1.30;0.00;;;;;;;;;;5283667;28;20052;-70
2022/04/05 08:51:30;;;;;;;0.25;0.10;;;;;;;;;;5283894;28;20020;-69
2022/04/05 08:54:02;;;;;;;0.30;0.10;;;;;;;;;;5284244;28;20418;-70
2022/04/05 08:56:34;;;;;;;0.30;0.10;;;;;;;;;;5283156;28;20048;-70
2022/04/05 08:59:05;;;;;;;0.13;0.00;;;;;;;;;;5284333;28;20110;-69
2022/04/05 09:01:37;;;;;;;0.10;0.00;;;;;;;;;;5283655;28;20371;-69
2022/04/05 09:04:10;;;;;;;0.30;0.00;;;;;;;;;;5283378;28;20267;-69
2022/04/05 09:06:41;;;;;;;0.20;0.10;;;;;;;;;;5283577;28;20056;-69
2022/04/05 09:09:19;;;;;;;0.50;0.00;;;;;;;;;;5283132;28;20052;-70
2022/04/05 09:11:52;;;;;;;0.20;0.10;;;;;;;;;;5283722;28;20277;-69
2022/04/05 09:14:24;;;;;;;0.20;0.05;;;;;;;;;;5282973;28;20495;-70
2022/04/05 09:17:09;;;;;;;0.20;0.10;;;;;;;;;;5282953;28;20103;-69
2022/04/05 09:19:46;;;;;;;0.20;0.08;;;;;;;;;;5283185;28;20020;-70
2022/04/05 09:22:30;;;;;;;0.30;0.10;;;;;;;;;;5283810;28;20482;-70
2022/04/05 09:25:02;;;;;;;0.00;0.00;;;;;;;;;;5282803;28;20016;-69
2022/04/05 09:27:52;;;;;;;0.20;0.00;;;;;;;;;;5282935;28;20012;-70
2022/04/05 09:30:28;;;;;;;0.08;0.00;;;;;;;;;;5282422;28;20475;-70
2022/04/05 09:33:01;;;;;;;0.10;0.03;;;;;;;;;;5283641;28;20017;-70
2022/04/05 09:35:42;;;;;;;0.30;0.00;;;;;;;;;;5282815;28;20032;-70
2022/04/05 09:38:17;;;;;;;0.30;0.10;;;;;;;;;;5282822;28;20109;-70
2022/04/05 09:40:52;;;;;;;0.40;0.10;;;;;;;;;;5282836;28;20073;-70
2022/04/05 09:43:23;;;;;;;0.30;0.00;;;;;;;;;;5282583;28;20021;-70
2022/04/05 09:45:58;;;;;;;0.20;0.03;;;;;;;;;;5282118;28;20031;-70
2022/04/05 09:48:31;;;;;;;0.17;0.00;;;;;;;;;;5282514;28;20422;-69
2022/04/05 09:51:02;;;;;;;0.20;0.10;;;;;;;;;;5282250;28;20020;-69
2022/04/05 09:53:39;;;;;;;0.30;0.00;;;;;;;;;;5282593;28;20090;-69
2022/04/05 09:56:18;;;;;;;0.10;0.00;;;;;;;;;;5283063;28;20107;-70
2022/04/05 09:58:53;;;;;;;0.20;0.00;;;;;;;;;;5281818;28;20105;-68
2022/04/05 10:01:25;;;;;;;0.20;0.10;;;;;;;;;;5282124;28;20033;-69
2022/04/05 10:04:02;;;;;;;0.25;0.05;;;;;;;;;;5282106;28;20012;-68
2022/04/05 10:06:38;;;;;;;0.15;0.00;;;;;;;;;;5281420;28;20036;-68
2022/04/05 10:09:13;;;;;;;0.10;0.00;;;;;;;;;;5282558;28;20020;-69
2022/04/05 10:11:45;;;;;;;1.55;0.00;;;;;;;;;;5282254;28;20028;-69
2022/04/05 10:14:23;;;;;;;0.20;0.00;;;;;;;;;;5281432;28;20102;-68
2022/04/05 10:16:55;;;;;;;0.20;0.00;;;;;;;;;;5282406;28;20047;-69
2022/04/05 10:19:27;;;;;;;0.10;0.00;;;;;;;;;;5280937;28;20028;-69
2022/04/05 10:21:58;;;;;;;0.43;0.10;;;;;;;;;;5282413;28;20098;-68
2022/04/05 10:24:30;;;;;;;0.10;0.00;;;;;;;;;;5281746;28;20549;-69
2022/04/05 10:27:02;;;;;;;0.20;0.10;;;;;;;;;;5281530;28;20622;-69
2022/04/05 10:29:33;;;;;;;0.03;0.00;;;;;;;;;;5281699;28;20077;-68
2022/04/05 10:32:07;;;;;;;0.10;0.00;;;;;;;;;;5282134;28;20105;-69
2022/04/05 10:34:44;;;;;;;0.10;0.00;;;;;;;;;;5280740;28;20036;-69
2022/04/05 10:37:17;;;;;;;0.00;0.00;;;;;;;;;;5282268;28;20020;-69
2022/04/05 10:39:57;;;;;;;0.00;0.00;;;;;;;;;;5281585;28;20024;-68
2022/04/05 10:42:35;;;;;;;0.15;0.00;;;;;;;;;;5280712;28;20031;-69
2022/04/05 10:45:14;;;;;;;0.00;0.00;;;;;;;;;;5281818;28;20115;-69
2022/04/05 10:48:10;;;;;;;0.10;0.00;;;;;;;;;;5280593;28;20032;-68
2022/04/05 10:50:42;;;;;;;0.13;0.05;;;;;;;;;;5281448;28;20031;-69
2022/04/05 10:53:15;;;;;;;0.00;0.00;;;;;;;;;;5281623;28;20017;-70
2022/04/05 10:56:06;;;;;;;0.08;0.00;;;;;;;;;;5275576;28;20111;-70
2022/04/05 10:58:47;;;;;;;0.52;0.10;;;;;;;;;;5281012;28;20371;-70
2022/04/05 11:01:24;;;;;;;0.20;0.03;;;;;;;;;;5280657;28;20035;-69
2022/04/05 11:04:16;;;;;;;0.20;0.00;;;;;;;;;;5281698;28;20063;-73
2022/04/05 11:07:02;;;;;;;0.10;0.00;;;;;;;;;;5280780;28;20486;-73
2022/04/05 11:09:34;;;;;;;0.25;0.10;;;;;;;;;;5280251;28;20035;-73
2022/04/05 11:12:09;;;;;;;0.10;0.00;;;;;;;;;;5281283;28;20016;-69
2022/04/05 11:14:41;;;;;;;0.10;0.00;;;;;;;;;;5280602;28;20105;-68
2022/04/05 11:17:14;;;;;;;0.75;0.00;;;;;;;;;;5280630;28;20049;-68
2022/04/05 11:19:47;;;;;;;0.10;0.10;;;;;;;;;;5270739;28;20038;-67
2022/04/05 11:22:21;;;;;;;0.30;0.10;;;;;;;;;;5279853;28;20056;-70
2022/04/05 11:24:52;;;;;;;0.30;0.05;;;;;;;;;;5280396;28;20020;-69
2022/04/05 11:27:37;;;;;;;0.40;0.10;;;;;;;;;;5280379;28;20424;-69
2022/04/05 11:30:25;;;;;;;0.20;0.00;;;;;;;;;;5280513;28;20266;-69
2022/04/05 11:33:09;;;;;;;0.20;0.10;;;;;;;;;;5281595;28;20036;-67
2022/04/05 11:35:42;;;;;;;0.30;0.10;;;;;;;;;;5280596;28;20056;-68
2022/04/05 11:38:17;;;;;;;0.85;0.10;;;;;;;;;;5280475;28;20016;-68
2022/04/05 11:40:50;;;;;;;0.15;0.00;;;;;;;;;;5276548;28;20028;-68
2022/04/05 11:43:24;;;;;;;0.30;0.00;;;;;;;;;;5280509;28;20032;-68
2022/04/05 11:46:00;;;;;;;0.15;0.03;;;;;;;;;;5279741;28;20016;-68
2022/04/05 11:48:31;;;;;;;0.10;0.00;;;;;;;;;;5279608;28;20028;-69
2022/04/05 11:51:07;;;;;;;0.10;0.00;;;;;;;;;;5279537;28;20379;-69
2022/04/05 11:53:38;;;;;;;0.20;0.10;;;;;;;;;;5279774;28;20025;-68
2022/04/05 11:56:11;;;;;;;0.20;0.00;;;;;;;;;;5277915;28;20368;-69
2022/04/05 11:58:52;;;;;;;0.17;0.00;;;;;;;;;;5279223;28;20353;-69
2022/04/05 12:01:28;;;;;;;0.35;0.00;;;;;;;;;;5278753;28;20475;-70
2022/04/05 12:04:10;;;;;;;0.25;0.00;;;;;;;;;;5280875;28;20117;-68
2022/04/05 12:06:42;;;;;;;0.10;0.00;;;;;;;;;;5279921;28;20028;-69
2022/04/05 12:09:17;;;;;;;0.10;0.00;;;;;;;;;;5284951;28;20047;-69
2022/04/05 12:11:50;;;;;;;0.28;0.00;;;;;;;;;;5283327;28;20099;-69
2022/04/05 12:14:24;;;;;;;0.00;0.00;;;;;;;;;;5284234;28;20075;-68
2022/04/05 12:16:59;;;;;;;0.00;0.00;;;;;;;;;;5284857;28;20089;-70
2022/04/05 12:19:41;;;;;;;0.10;0.00;;;;;;;;;;5283454;28;20019;-71
2022/04/05 12:22:16;;;;;;;0.10;0.00;;;;;;;;;;5284648;28;20021;-70
2022/04/05 12:24:50;;;;;;;0.00;0.00;;;;;;;;;;5284476;28;20087;-71
2022/04/05 12:27:23;;;;;;;0.00;0.00;;;;;;;;;;5283314;28;20024;-71
2022/04/05 12:29:58;;;;;;;0.15;0.00;;;;;;;;;;5284557;28;20398;-71
2022/04/05 12:32:34;;;;;;;0.10;0.00;;;;;;;;;;5282963;28;20021;-71
2022/04/05 12:35:13;;;;;;;0.00;0.00;;;;;;;;;;5282685;28;20028;-70
2022/04/05 12:37:44;;;;;;;;;;;;;;;;;;5284066;28;20168;-71
2022/04/05 12:40:25;;;;;;;0.00;0.00;;;;;;;;;;5284180;28;19993;-71
2022/04/05 12:42:57;;;;;;;0.00;0.00;;;;;;;;;;5284931;28;20110;-70
2022/04/05 12:45:29;;;;;;;0.20;0.00;;;;;;;;;;5283681;28;20044;-69
2022/04/05 12:48:10;;;;;;;0.03;0.00;;;;;;;;;;5284036;28;20008;-71
2022/04/05 12:50:42;;;;;;;0.10;0.00;;;;;;;;;;5284117;28;20437;-70
2022/04/05 12:53:22;;;;;;;0.00;0.00;;;;;;;;;;5284660;28;20016;-68
2022/04/05 12:56:04;;;;;;;0.15;0.10;;;;;;;;;;5283508;28;20039;-69
2022/04/05 12:58:48;;;;;;;0.15;0.05;;;;;;;;;;5283789;28;20035;-69
2022/04/05 13:01:21;;;;;;;0.20;0.10;;;;;;;;;;5283228;28;20105;-70
2022/04/05 13:03:57;;;;;;;0.13;0.05;;;;;;;;;;5284698;28;20032;-69
2022/04/05 13:06:29;;;;;;;0.10;0.00;;;;;;;;;;5283718;28;20028;-70
2022/04/05 13:09:04;;;;;;;0.10;0.00;;;;;;;;;;5283277;28;20020;-69
2022/04/05 13:11:37;;;;;;;0.17;0.00;;;;;;;;;;5283726;28;20063;-69
2022/04/05 13:14:08;;;;;;;2.72;0.63;;;;;;;;;;5283817;28;20119;-69
2022/04/05 13:16:39;;;;;;;4.38;0.90;;;;;;;;;;5282543;28;20135;-69
2022/04/05 13:19:12;;;;;;;3.40;1.00;;;;;;;;;;5283316;28;20066;-69
2022/04/05 13:21:44;;;;;;;2.42;0.93;;;;;;;;;;5283395;28;20442;-69
2022/04/05 13:24:17;;;;;;;3.60;1.80;;;;;;;;;;5282903;28;20467;-69
2022/04/05 13:26:50;;;;;;;5.13;1.67;;;;;;;;;;5282895;28;20399;-69
2022/04/05 13:29:24;;;;;;;4.05;1.58;;;;;;;;;;5282438;28;20108;-69
2022/04/05 13:32:02;;;;;;;4.70;2.40;;;;;;;;;;5283641;28;20024;-69
2022/04/05 13:34:35;;;;;;;5.50;2.60;;;;;;;;;;5264526;28;20112;-69
2022/04/05 13:37:06;;;;;;;4.75;2.65;;;;;;;;;;5282646;28;20270;-69
2022/04/05 13:39:37;;;;;;;7.40;2.75;;;;;;;;;;5282438;28;20027;-69
2022/04/05 13:42:09;;;;;;;4.00;2.28;;;;;;;;;;5283496;28;20383;-69
2022/04/05 13:44:41;;;;;;;6.10;2.65;;;;;;;;;;5281909;28;20384;-69
2022/04/05 13:47:13;;;;;;;5.85;3.10;;;;;;;;;;5283226;28;20044;-69
2022/04/05 13:49:45;;;;;;;6.05;3.25;;;;;;;;;;5282417;28;20099;-69
2022/04/05 13:52:17;;;;;;;5.63;2.83;;;;;;;;;;5282080;28;20095;-69
2022/04/05 13:54:48;;;;;;;5.45;2.60;;;;;;;;;;5282474;28;20032;-68
2022/04/05 13:57:20;;;;;;;4.65;2.95;;;;;;;;;;5281978;28;20016;-69
2022/04/05 13:59:51;;;;;;;4.25;2.90;;;;;;;;;;5282570;28;20344;-69
2022/04/05 14:02:23;;;;;;;6.50;2.40;;;;;;;;;;5282205;28;20016;-69
2022/04/05 14:04:54;;;;;;;4.00;1.90;;;;;;;;;;5282052;28;20395;-68
2022/04/05 14:07:26;;;;;;;3.42;1.83;;;;;;;;;;5281974;28;20017;-69
2022/04/05 14:09:57;;;;;;;3.47;2.10;;;;;;;;;;5282846;28;20371;-70
2022/04/05 14:12:28;;;;;;;4.43;2.33;;;;;;;;;;5281015;28;20051;-68
2022/04/05 14:14:59;;;;;;;4.93;2.10;;;;;;;;;;5282444;28;20317;-70
2022/04/05 14:17:30;;;;;;;5.43;2.78;;;;;;;;;;5282154;28;20765;-70
2022/04/05 14:20:02;;;;;;;4.70;2.50;;;;;;;;;;5281955;28;20027;-69
2022/04/05 14:22:33;;;;;;;7.13;2.97;;;;;;;;;;5282042;28;20266;-70
2022/04/05 14:25:04;;;;;;;5.75;3.25;;;;;;;;;;5282672;28;20055;-69
2022/04/05 14:27:35;;;;;;;4.68;2.30;;;;;;;;;;5281069;28;20016;-68
2022/04/05 14:30:07;;;;;;;5.82;2.58;;;;;;;;;;5282193;28;20028;-68
2022/04/05 14:32:38;;;;;;;5.70;3.20;;;;;;;;;;5280105;28;20807;-67
2022/04/05 14:35:09;;;;;;;5.93;3.25;;;;;;;;;;5282330;28;20029;-67
2022/04/05 14:37:41;;;;;;;8.52;3.10;;;;;;;;;;5281686;28;20021;-67
2022/04/05 14:40:12;;;;;;;6.15;3.10;;;;;;;;;;5281328;28;20320;-67
2022/04/05 14:42:43;;;;;;;4.93;2.97;;;;;;;;;;5281761;28;20134;-67
2022/04/05 14:45:15;;;;;;;9.38;4.60;;;;;;;;;;5281955;28;20020;-70
2022/04/05 14:47:46;;;;;;;7.65;3.53;;;;;;;;;;5293898;28;20016;-69
2022/04/05 14:50:18;;;;;;;6.57;4.22;;;;;;;;;;5291899;28;20028;-67
2022/04/05 14:52:49;;;;;;;7.75;3.80;;;;;;;;;;5299337;28;20028;-68
2022/04/05 14:55:20;;;;;;;6.93;3.83;;;;;;;;;;5302050;28;20371;-69
2022/04/05 14:57:52;;;;;;;8.25;4.13;;;;;;;;;;5302570;28;20040;-68
2022/04/05 15:00:23;;;;;;;8.50;4.07;;;;;;;;;;5301284;28;20527;-69
2022/04/05 15:02:54;;;;;;;8.52;4.38;;;;;;;;;;5302723;28;20058;-69
2022/04/05 15:05:25;;;;;;;5.03;3.92;;;;;;;;;;5301951;28;20123;-69
2022/04/05 15:07:57;;;;;;;6.05;4.47;;;;;;;;;;5301713;28;20745;-68
2022/04/05 15:10:29;;;;;;;5.15;3.95;;;;;;;;;;5301940;28;20374;-68
2022/04/05 15:13:01;;;;;;;4.40;3.85;;;;;;;;;;5298832;28;20124;-69
2022/04/05 15:15:32;;;;;;;5.28;3.58;;;;;;;;;;5278567;28;20119;-70